createdAt,value
2018-01-30T00:00:24.907Z,93.42
2018-01-30T00:02:54.922Z,94.01
2018-01-30T00:05:23.779Z,93.95
2018-01-30T00:07:53.379Z,94.28
2018-01-30T00:10:22.964Z,94.10
2018-01-30T00:12:51.210Z,94.20
2018-01-30T00:15:19.905Z,93.44
2018-01-30T00:17:48.721Z,93.18
2018-01-30T00:20:17.914Z,92.68
2018-01-30T00:22:48.280Z,91.85
2018-01-30T00:25:16.934Z,92.32
2018-01-30T00:27:46.163Z,92.70
2018-01-30T00:30:15.044Z,93.07
2018-01-30T00:32:43.528Z,93.07
2018-01-30T00:35:13.609Z,93.46
2018-01-30T00:37:43.401Z,93.29
2018-01-30T00:40:14.884Z,93.48
2018-01-30T00:42:46.131Z,93.29
2018-01-30T00:45:16.081Z,92.22
2018-01-30T00:47:44.106Z,92.31
2018-01-30T00:50:14.252Z,92.14
2018-01-30T00:52:42.196Z,91.62
2018-01-30T00:55:12.456Z,91.12
2018-01-30T00:57:42.092Z,90.71
2018-01-30T01:00:12.054Z,91.30
2018-01-30T01:02:40.604Z,91.54
2018-01-30T01:05:10.372Z,91.78
2018-01-30T01:07:40.239Z,91.72
2018-01-30T01:10:10.804Z,91.94
2018-01-30T01:12:39.106Z,91.90
2018-01-30T01:15:09.706Z,92.04
2018-01-30T01:17:39.066Z,92.54
2018-01-30T01:20:10.790Z,92.92
2018-01-30T01:22:43.112Z,93.11
2018-01-30T01:25:12.709Z,93.38
2018-01-30T01:27:41.669Z,93.59
2018-01-30T01:30:11.126Z,93.62
2018-01-30T01:32:40.273Z,93.71
2018-01-30T01:35:08.842Z,92.94
2018-01-30T01:37:38.153Z,93.09
2018-01-30T01:40:07.393Z,93.23
2018-01-30T01:42:35.820Z,93.55
2018-01-30T01:45:04.467Z,93.27
2018-01-30T01:47:34.331Z,92.45
2018-01-30T01:50:04.246Z,92.73
2018-01-30T01:52:32.968Z,93.10
2018-01-30T01:55:02.221Z,92.97
2018-01-30T01:57:30.067Z,92.29
2018-01-30T01:59:59.150Z,92.71
2018-01-30T02:05:00.753Z,91.65
2018-01-30T02:07:30.711Z,92.02
2018-01-30T02:10:01.225Z,91.75
2018-01-30T02:12:31.653Z,91.80
2018-01-30T02:15:02.570Z,91.47
2018-01-30T02:17:32.970Z,91.72
2018-01-30T02:20:02.849Z,91.23
2018-01-30T02:22:32.121Z,91.49
2018-01-30T02:25:00.012Z,91.44
2018-01-30T02:27:30.382Z,90.98
2018-01-30T02:30:01.930Z,91.33
2018-01-30T02:32:30.365Z,90.90
2018-01-30T02:35:00.758Z,91.00
2018-01-30T02:37:30.906Z,90.99
2018-01-30T02:40:00.549Z,91.60
2018-01-30T02:42:30.706Z,90.72
2018-01-30T02:45:00.192Z,90.48
2018-01-30T02:47:28.822Z,90.83
2018-01-30T02:49:58.915Z,90.72
2018-01-30T02:52:27.541Z,89.76
2018-01-30T02:54:56.348Z,90.12
2018-01-30T02:57:28.134Z,89.04
2018-01-30T02:59:57.651Z,89.42
2018-01-30T03:02:27.974Z,89.37
2018-01-30T03:07:40.868Z,89.25
2018-01-30T03:10:11.216Z,89.49
2018-01-30T03:12:43.212Z,88.87
2018-01-30T03:15:13.122Z,89.02
2018-01-30T03:17:42.246Z,89.17
2018-01-30T03:20:11.617Z,89.06
2018-01-30T03:22:43.744Z,88.99
2018-01-30T03:25:13.697Z,88.17
2018-01-30T03:27:44.629Z,87.91
2018-01-30T03:32:48.823Z,88.86
2018-01-30T03:35:18.113Z,89.02
2018-01-30T03:37:46.101Z,88.77
2018-01-30T03:40:18.733Z,88.37
2018-01-30T03:42:50.810Z,87.78
2018-01-30T03:45:18.877Z,87.09
2018-01-30T03:47:47.822Z,88.00
2018-01-30T03:50:18.389Z,87.72
2018-01-30T03:52:46.164Z,87.66
2018-01-30T03:55:14.153Z,87.84
2018-01-30T03:57:46.744Z,88.60
2018-01-30T04:00:15.770Z,87.63
2018-01-30T04:02:45.630Z,87.98
2018-01-30T04:05:16.223Z,88.02
2018-01-30T04:07:45.457Z,87.80
2018-01-30T04:10:15.240Z,88.72
2018-01-30T04:12:44.428Z,87.79
2018-01-30T04:15:15.297Z,88.23
2018-01-30T04:17:45.456Z,88.49
2018-01-30T04:20:14.437Z,88.06
2018-01-30T04:22:43.546Z,88.56
2018-01-30T04:25:12.489Z,89.02
2018-01-30T04:27:43.728Z,89.26
2018-01-30T04:30:12.261Z,89.74
2018-01-30T04:32:42.185Z,90.22
2018-01-30T04:35:10.118Z,90.65
2018-01-30T04:37:40.570Z,90.28
2018-01-30T04:40:10.703Z,90.79
2018-01-30T04:42:39.804Z,90.97
2018-01-30T04:45:09.505Z,91.15
2018-01-30T04:47:39.148Z,91.30
2018-01-30T04:50:07.866Z,91.23
2018-01-30T04:52:36.307Z,91.30
2018-01-30T04:55:06.442Z,91.17
2018-01-30T04:57:35.035Z,90.60
2018-01-30T05:00:03.538Z,90.84
2018-01-30T05:02:34.300Z,90.96
2018-01-30T05:05:03.621Z,90.47
2018-01-30T05:07:32.359Z,90.55
2018-01-30T05:10:01.995Z,90.28
2018-01-30T05:12:31.250Z,90.42
2018-01-30T05:15:00.886Z,90.34
2018-01-30T05:17:30.180Z,90.64
2018-01-30T05:20:01.732Z,91.15
2018-01-30T05:22:31.297Z,91.38
2018-01-30T05:25:00.159Z,91.77
2018-01-30T05:27:29.325Z,91.79
2018-01-30T05:29:58.084Z,92.09
2018-01-30T05:32:26.123Z,92.12
2018-01-30T05:34:53.915Z,92.31
2018-01-30T05:37:24.327Z,92.37
2018-01-30T05:39:54.412Z,92.57
2018-01-30T05:42:23.395Z,92.76
2018-01-30T05:44:52.035Z,93.00
2018-01-30T05:47:19.910Z,93.07
2018-01-30T05:49:49.146Z,92.98
2018-01-30T05:52:17.565Z,92.98
2018-01-30T05:54:47.193Z,93.16
2018-01-30T05:57:17.346Z,93.17
2018-01-30T05:59:45.913Z,93.24
2018-01-30T06:04:50.161Z,92.39
2018-01-30T06:07:19.843Z,92.77
2018-01-30T06:09:48.802Z,92.58
2018-01-30T06:12:16.683Z,92.56
2018-01-30T06:14:45.550Z,92.79
2018-01-30T06:17:17.440Z,92.75
2018-01-30T06:19:47.323Z,92.92
2018-01-30T06:22:18.021Z,93.13
2018-01-30T06:24:47.965Z,93.27
2018-01-30T06:27:16.874Z,93.38
2018-01-30T06:29:45.935Z,93.56
2018-01-30T06:32:16.776Z,93.73
2018-01-30T06:34:45.072Z,93.95
2018-01-30T06:37:13.092Z,94.38
2018-01-30T06:39:43.668Z,94.71
2018-01-30T06:42:15.177Z,94.58
2018-01-30T06:44:44.879Z,95.00
2018-01-30T06:49:48.676Z,96.24
2018-01-30T06:52:17.111Z,96.52
2018-01-30T06:54:45.864Z,96.82
2018-01-30T06:57:15.606Z,97.03
2018-01-30T06:59:45.802Z,97.14
2018-01-30T07:02:15.897Z,97.23
2018-01-30T07:04:46.182Z,97.28
2018-01-30T07:07:25.090Z,97.24
2018-01-30T07:09:54.189Z,97.40
2018-01-30T07:12:23.410Z,97.58
2018-01-30T07:14:56.679Z,97.59
2018-01-30T07:17:24.921Z,97.45
2018-01-30T07:19:55.410Z,97.41
2018-01-30T07:22:24.684Z,96.97
2018-01-30T07:24:55.046Z,96.59
2018-01-30T07:27:25.838Z,96.55
2018-01-30T07:29:56.630Z,96.32
2018-01-30T07:32:26.241Z,96.29
2018-01-30T07:34:56.804Z,96.52
2018-01-30T07:37:25.459Z,96.67
2018-01-30T07:39:55.553Z,96.80
2018-01-30T07:42:25.149Z,97.01
2018-01-30T07:44:55.754Z,97.07
2018-01-30T07:47:27.998Z,97.04
2018-01-30T07:49:56.786Z,97.05
2018-01-30T07:52:26.018Z,97.16
2018-01-30T07:54:56.158Z,97.17
2018-01-30T07:57:27.729Z,97.11
2018-01-30T07:59:55.722Z,96.84
2018-01-30T08:02:24.156Z,96.68
2018-01-30T08:04:52.327Z,96.48
2018-01-30T08:07:21.920Z,96.42
2018-01-30T08:09:54.104Z,96.20
2018-01-30T08:12:24.299Z,95.91
2018-01-30T08:14:53.626Z,95.71
2018-01-30T08:17:25.568Z,95.71
2018-01-30T08:19:54.783Z,95.66
2018-01-30T08:22:24.274Z,95.59
2018-01-30T08:24:52.784Z,95.30
2018-01-30T08:27:21.716Z,95.19
2018-01-30T08:29:51.138Z,95.18
2018-01-30T08:32:20.251Z,94.99
2018-01-30T08:34:51.519Z,94.72
2018-01-30T08:37:20.083Z,94.26
2018-01-30T08:39:52.514Z,93.97
2018-01-30T08:42:21.335Z,93.70
2018-01-30T08:44:50.711Z,93.47
2018-01-30T08:47:19.330Z,93.69
2018-01-30T08:49:49.065Z,93.63
2018-01-30T08:52:18.456Z,93.87
2018-01-30T08:54:49.012Z,93.75
2018-01-30T08:57:18.251Z,93.64
2018-01-30T08:59:47.548Z,93.80
2018-01-30T09:02:16.773Z,93.27
2018-01-30T09:04:45.444Z,93.15
2018-01-30T09:07:14.286Z,92.98
2018-01-30T09:09:45.537Z,92.93
2018-01-30T09:12:13.907Z,92.56
2018-01-30T09:14:42.190Z,92.39
2018-01-30T09:17:11.769Z,91.98
2018-01-30T09:19:40.036Z,91.46
2018-01-30T09:22:09.896Z,91.80
2018-01-30T09:24:39.408Z,91.53
2018-01-30T09:27:07.989Z,90.82
2018-01-30T09:29:38.337Z,91.35
2018-01-30T09:32:07.470Z,91.21
2018-01-30T09:34:36.182Z,91.20
2018-01-30T09:37:05.379Z,91.97
2018-01-30T09:39:34.302Z,92.18
2018-01-30T09:42:04.366Z,91.76
2018-01-30T09:44:34.101Z,90.87
2018-01-30T09:47:02.981Z,90.87
2018-01-30T09:49:31.979Z,90.64
2018-01-30T09:52:02.419Z,90.36
2018-01-30T09:54:31.180Z,90.30
2018-01-30T09:57:00.594Z,90.93
2018-01-30T09:59:30.868Z,90.54
2018-01-30T10:02:00.526Z,90.93
2018-01-30T10:04:29.714Z,90.10
2018-01-30T10:07:00.578Z,90.28
2018-01-30T10:09:31.256Z,91.33
2018-01-30T10:12:01.398Z,89.19
2018-01-30T10:14:31.640Z,90.52
2018-01-30T10:17:03.778Z,89.34
2018-01-30T10:19:33.719Z,89.00
2018-01-30T10:22:02.313Z,88.92
2018-01-30T10:24:31.856Z,88.58
2018-01-30T10:27:01.081Z,88.78
2018-01-30T10:29:31.106Z,89.05
2018-01-30T10:31:59.810Z,89.13
2018-01-30T10:34:27.974Z,89.77
2018-01-30T10:36:57.460Z,89.47
2018-01-30T10:39:29.742Z,90.38
2018-01-30T10:41:59.537Z,89.91
2018-01-30T10:44:27.739Z,89.22
2018-01-30T10:46:57.442Z,89.03
2018-01-30T10:49:29.712Z,89.57
2018-01-30T10:51:59.898Z,89.12
2018-01-30T10:54:28.537Z,87.62
2018-01-30T10:56:56.648Z,88.18
2018-01-30T10:59:24.909Z,88.09
2018-01-30T11:01:54.000Z,89.14
2018-01-30T11:04:22.831Z,88.84
2018-01-30T11:06:50.727Z,90.07
2018-01-30T11:09:19.672Z,89.66
2018-01-30T11:11:49.809Z,89.39
2018-01-30T11:14:18.183Z,90.25
2018-01-30T11:16:46.426Z,90.13
2018-01-30T11:19:15.811Z,89.96
2018-01-30T11:21:44.172Z,90.53
2018-01-30T11:24:13.796Z,90.29
2018-01-30T11:26:43.422Z,89.18
2018-01-30T11:29:13.983Z,88.41
2018-01-30T11:31:43.584Z,91.55
2018-01-30T11:34:12.070Z,90.16
2018-01-30T11:36:40.062Z,91.33
2018-01-30T11:39:09.375Z,92.11
2018-01-30T11:41:38.446Z,91.81
2018-01-30T11:44:08.119Z,92.15
2018-01-30T11:46:37.230Z,92.17
2018-01-30T11:49:06.591Z,92.21
2018-01-30T11:51:35.172Z,91.81
2018-01-30T11:54:04.659Z,91.78
2018-01-30T11:56:34.083Z,91.67
2018-01-30T11:59:04.680Z,91.07
2018-01-30T12:01:35.516Z,91.11
2018-01-30T12:04:06.370Z,89.67
2018-01-30T12:06:36.141Z,90.84
2018-01-30T12:09:06.722Z,90.03
2018-01-30T12:11:35.276Z,89.28
2018-01-30T12:14:04.771Z,88.92
2018-01-30T12:16:34.546Z,89.87
2018-01-30T12:19:02.516Z,88.61
2018-01-30T12:21:33.088Z,87.99
2018-01-30T12:24:02.748Z,88.55
2018-01-30T12:26:31.934Z,88.73
2018-01-30T12:29:01.636Z,88.57
2018-01-30T12:31:31.148Z,89.00
2018-01-30T12:33:59.759Z,88.30
2018-01-30T12:36:28.464Z,88.81
2018-01-30T12:39:00.822Z,88.28
2018-01-30T12:41:28.731Z,87.12
2018-01-30T12:43:56.588Z,86.62
2018-01-30T12:46:28.381Z,87.39
2018-01-30T12:48:57.277Z,86.77
2018-01-30T12:51:27.158Z,87.36
2018-01-30T12:53:57.042Z,86.69
2018-01-30T12:56:28.288Z,85.97
2018-01-30T12:58:57.736Z,86.42
2018-01-30T13:01:28.464Z,85.67
2018-01-30T13:03:58.451Z,85.06
2018-01-30T13:06:28.646Z,85.12
2018-01-30T13:08:57.659Z,85.13
2018-01-30T13:11:27.376Z,84.97
2018-01-30T13:13:56.314Z,86.00
2018-01-30T13:16:24.593Z,85.94
2018-01-30T13:18:53.816Z,85.99
2018-01-30T13:21:22.541Z,85.99
2018-01-30T13:23:50.890Z,85.51
2018-01-30T13:26:19.913Z,85.66
2018-01-30T13:28:49.692Z,85.95
2018-01-30T13:31:18.860Z,86.51
2018-01-30T13:33:47.440Z,85.18
2018-01-30T13:36:16.373Z,84.75
2018-01-30T13:38:46.049Z,85.08
2018-01-30T13:41:15.644Z,85.45
2018-01-30T13:43:45.247Z,86.21
2018-01-30T13:46:16.927Z,86.32
2018-01-30T13:48:47.058Z,85.99
2018-01-30T13:51:15.988Z,84.85
2018-01-30T13:53:44.722Z,85.94
2018-01-30T13:56:14.867Z,85.20
2018-01-30T13:58:43.906Z,85.15
2018-01-30T14:01:12.214Z,84.68
2018-01-30T14:03:41.358Z,85.09
2018-01-30T14:06:11.290Z,84.83
2018-01-30T14:08:39.281Z,84.48
2018-01-30T14:11:08.485Z,83.70
2018-01-30T14:13:38.706Z,83.25
2018-01-30T14:16:07.213Z,83.92
2018-01-30T14:18:37.662Z,83.96
2018-01-30T14:21:07.607Z,84.68
2018-01-30T14:23:36.730Z,84.81
2018-01-30T14:26:05.693Z,84.78
2018-01-30T14:28:35.980Z,84.39
2018-01-30T14:31:04.267Z,84.19
2018-01-30T14:33:34.321Z,84.98
2018-01-30T14:36:04.945Z,85.14
2018-01-30T14:38:37.962Z,85.13
2018-01-30T14:41:11.975Z,85.40
2018-01-30T14:43:40.010Z,84.64
2018-01-30T14:46:08.142Z,85.17
2018-01-30T14:48:37.466Z,85.75
2018-01-30T14:51:08.738Z,85.76
2018-01-30T14:53:38.617Z,85.62
2018-01-30T14:56:06.421Z,85.56
2018-01-30T14:58:37.130Z,84.65
2018-01-30T15:01:07.225Z,84.48
2018-01-30T15:03:37.716Z,83.94
2018-01-30T15:06:07.784Z,82.95
2018-01-30T15:08:35.746Z,83.54
2018-01-30T15:11:05.783Z,83.39
2018-01-30T15:13:35.084Z,83.88
2018-01-30T15:16:07.939Z,84.69
2018-01-30T15:18:36.338Z,83.54
2018-01-30T15:21:09.588Z,84.44
2018-01-30T15:23:38.981Z,85.32
2018-01-30T15:26:08.903Z,84.40
2018-01-30T15:28:37.434Z,85.06
2018-01-30T15:31:09.609Z,84.94
2018-01-30T15:33:41.030Z,85.10
2018-01-30T15:36:12.394Z,84.41
2018-01-30T15:38:43.490Z,84.76
2018-01-30T15:41:13.030Z,84.90
2018-01-30T15:43:41.917Z,84.93
2018-01-30T15:46:09.847Z,85.28
2018-01-30T15:48:40.670Z,85.21
2018-01-30T15:51:09.741Z,85.36
2018-01-30T15:53:39.816Z,85.76
2018-01-30T15:56:09.465Z,85.64
2018-01-30T15:58:39.102Z,88.11
2018-01-30T16:01:09.236Z,87.00
2018-01-30T16:03:38.872Z,86.67
2018-01-30T16:06:09.161Z,86.90
2018-01-30T16:08:37.863Z,87.22
2018-01-30T16:11:09.256Z,87.72
2018-01-30T16:13:39.783Z,87.41
2018-01-30T16:16:09.790Z,87.99
2018-01-30T16:18:40.669Z,88.36
2018-01-30T16:21:09.560Z,87.61
2018-01-30T16:23:38.190Z,87.60
2018-01-30T16:26:08.089Z,86.61
2018-01-30T16:28:40.468Z,86.63
2018-01-30T16:31:11.740Z,87.08
2018-01-30T16:33:42.598Z,86.62
2018-01-30T16:36:12.377Z,87.13
2018-01-30T16:38:40.402Z,87.35
2018-01-30T16:41:09.866Z,88.01
2018-01-30T16:43:41.237Z,88.60
2018-01-30T16:46:12.717Z,88.75
2018-01-30T16:48:48.636Z,89.22
2018-01-30T16:51:19.562Z,89.44
2018-01-30T16:53:50.137Z,89.67
2018-01-30T16:56:21.982Z,89.59
2018-01-30T16:58:53.534Z,89.62
2018-01-30T17:01:23.591Z,89.35
2018-01-30T17:03:53.248Z,89.02
2018-01-30T17:06:24.186Z,89.04
2018-01-30T17:08:57.538Z,89.21
2018-01-30T17:11:28.023Z,89.57
2018-01-30T17:13:58.231Z,89.45
2018-01-30T17:16:27.320Z,89.91
2018-01-30T17:18:57.329Z,89.81
2018-01-30T17:21:25.341Z,89.46
2018-01-30T17:23:55.035Z,89.56
2018-01-30T17:26:26.963Z,89.61
2018-01-30T17:28:56.025Z,90.08
2018-01-30T17:31:27.210Z,89.44
2018-01-30T17:33:57.102Z,89.60
2018-01-30T17:36:26.829Z,89.94
2018-01-30T17:38:58.086Z,89.86
2018-01-30T17:41:28.459Z,89.60
2018-01-30T17:43:56.374Z,89.53
2018-01-30T17:46:24.750Z,89.84
2018-01-30T17:48:55.860Z,90.04
2018-01-30T17:51:26.686Z,90.12
2018-01-30T17:53:56.178Z,89.92
2018-01-30T17:56:26.479Z,89.93
2018-01-30T17:58:56.916Z,89.96
2018-01-30T18:01:25.539Z,89.87
2018-01-30T18:03:55.023Z,90.03
2018-01-30T18:06:24.019Z,90.01
2018-01-30T18:08:53.973Z,90.16
2018-01-30T18:11:23.576Z,90.46
2018-01-30T18:13:53.711Z,90.78
2018-01-30T18:16:21.585Z,91.13
2018-01-30T18:18:50.811Z,91.72
2018-01-30T18:21:18.626Z,91.84
2018-01-30T18:23:46.883Z,91.89
2018-01-30T18:26:16.261Z,92.30
2018-01-30T18:28:47.000Z,92.85
2018-01-30T18:31:17.326Z,92.89
2018-01-30T18:33:46.135Z,93.05
2018-01-30T18:36:14.850Z,92.85
2018-01-30T18:38:44.625Z,92.11
2018-01-30T18:41:12.456Z,92.37
2018-01-30T18:46:16.204Z,91.80
2018-01-30T18:48:44.645Z,91.49
2018-01-30T18:51:13.461Z,91.42
2018-01-30T18:53:42.327Z,91.31
2018-01-30T18:56:13.236Z,91.37
2018-01-30T18:58:44.395Z,91.31
2018-01-30T19:01:15.363Z,91.24
2018-01-30T19:03:43.898Z,90.75
2018-01-30T19:06:12.719Z,90.67
2018-01-30T19:08:43.426Z,90.32
2018-01-30T19:11:12.558Z,90.37
2018-01-30T19:13:40.773Z,90.24
2018-01-30T19:16:11.187Z,90.71
2018-01-30T19:18:40.262Z,91.24
2018-01-30T19:21:10.814Z,90.49
2018-01-30T19:23:41.580Z,90.44
2018-01-30T19:26:10.820Z,90.65
2018-01-30T19:28:39.210Z,90.65
2018-01-30T19:31:09.867Z,90.92
2018-01-30T19:33:37.762Z,90.78
2018-01-30T19:36:05.585Z,90.88
2018-01-30T19:38:36.030Z,91.04
2018-01-30T19:41:05.549Z,90.56
2018-01-30T19:43:33.451Z,90.35
2018-01-30T19:46:01.805Z,90.78
2018-01-30T19:48:31.731Z,90.91
2018-01-30T19:51:02.474Z,90.70
2018-01-30T19:53:31.877Z,90.93
2018-01-30T19:56:01.229Z,90.68
2018-01-30T19:58:30.921Z,90.96
2018-01-30T20:01:00.071Z,90.97
2018-01-30T20:03:29.599Z,90.98
2018-01-30T20:05:59.640Z,91.10
2018-01-30T20:08:32.014Z,91.00
2018-01-30T20:11:04.403Z,91.55
2018-01-30T20:13:34.920Z,91.51
2018-01-30T20:18:36.538Z,91.41
2018-01-30T20:21:06.276Z,91.53
2018-01-30T20:23:35.182Z,91.39
2018-01-30T20:26:04.367Z,91.87
2018-01-30T20:28:34.529Z,91.74
2018-01-30T20:31:04.306Z,91.77
2018-01-30T20:33:34.229Z,91.59
2018-01-30T20:36:04.595Z,91.97
2018-01-30T20:38:32.759Z,92.42
2018-01-30T20:41:01.554Z,93.10
2018-01-30T20:43:30.399Z,92.81
2018-01-30T20:46:00.173Z,92.86
2018-01-30T20:48:29.601Z,93.01
2018-01-30T20:51:01.882Z,93.06
2018-01-30T20:53:30.082Z,93.16
2018-01-30T20:56:01.005Z,93.12
2018-01-30T20:58:32.590Z,93.23
2018-01-30T21:01:00.717Z,93.20
2018-01-30T21:03:29.586Z,93.27
2018-01-30T21:06:01.365Z,93.57
2018-01-30T21:08:30.087Z,93.31
2018-01-30T21:10:59.419Z,93.23
2018-01-30T21:13:28.819Z,93.40
2018-01-30T21:15:57.482Z,93.55
2018-01-30T21:18:27.915Z,93.73
2018-01-30T21:20:57.885Z,94.00
2018-01-30T21:23:30.441Z,94.30
2018-01-30T21:26:00.449Z,94.51
2018-01-30T21:28:30.273Z,94.70
2018-01-30T21:31:02.268Z,94.98
2018-01-30T21:33:32.884Z,95.23
2018-01-30T21:36:01.096Z,95.45
2018-01-30T21:38:30.044Z,95.60
2018-01-30T21:40:58.914Z,95.71
2018-01-30T21:43:26.638Z,95.96
2018-01-30T21:45:57.597Z,96.00
2018-01-30T21:48:26.115Z,95.99
2018-01-30T21:50:56.193Z,95.99
2018-01-30T21:53:26.652Z,96.04
2018-01-30T21:55:57.590Z,96.11
2018-01-30T21:58:26.397Z,96.22
2018-01-30T22:00:55.085Z,96.37
2018-01-30T22:03:25.081Z,96.46
2018-01-30T22:05:55.754Z,96.51
2018-01-30T22:08:26.842Z,96.54
2018-01-30T22:10:56.204Z,96.59
2018-01-30T22:13:25.896Z,96.70
2018-01-30T22:15:53.841Z,96.85
2018-01-30T22:18:22.841Z,97.02
2018-01-30T22:20:55.292Z,97.19
2018-01-30T22:23:24.706Z,97.37
2018-01-30T22:25:54.732Z,97.43
2018-01-30T22:28:24.364Z,97.52
2018-01-30T22:30:54.072Z,97.68
2018-01-30T22:33:22.550Z,97.95
2018-01-30T22:35:51.847Z,98.16
2018-01-30T22:38:21.428Z,98.37
2018-01-30T22:40:53.117Z,98.49
2018-01-30T22:43:21.798Z,98.53
2018-01-30T22:45:52.731Z,98.55
